Historyczne dane pomiarowe

Dodano dane terminowe – wersja testowa.

Dane z okresu 1951-2019

Wersja bazy: 1.34 [2019-03-16, lista zmian], aktualizacja planowana na 2019-04-15

Dane meteo z obszaru Polski uzyskane na podstawie danych udostępnionych przez Instytut Meteorologii i Gospodarki Wodnej – Państwowy Instytut Badawczy.

 

Wybierz Datę:    

       

TemperaturaWilgotnośćWiatrCiśnienieOpadyŚniegCzas trwania zjawisk
 Stacja t tx tn tng RH VA  wxwx mslp ppp RRR   cm mm wxwxwxwxwxwxwx
2019-07-25 21.5 29.2 12.9 10.9-- 4.3 1.3---- 0.0------------
2019-07-24 19.3 22.1 16.4 15.3-- 4.3 1.3---- 0.4------------
2019-07-23 18.4 21.9 15.6 16.3-- 6.7 1.7---- 1.2------------
2019-07-22 21.7 28.7 17.1 15.3-- 5.7 3.3---- 0.4------------
2019-07-21 22.2 29.7 17.5 15.3-- 6.7 2.0---- 6.2------------
2019-07-20 21.7 28.2 15.0 14.4-- 3.3 2.0---- 0.0------------
2019-07-19 19.6 28.7 9.3 7.9-- 3.0 1.0---- 0.2------------
2019-07-18 17.9 24.2 9.5 7.4-- 5.7 1.0---- 0.0------------
2019-07-17 18.0 22.1 14.1 10.9-- 5.3 4.3---- 0.0------------
2019-07-16 16.0 22.1 8.0 6.5-- 6.3 3.7---- 0.0------------
2019-07-15 17.3 23.6 12.1 10.4-- 6.0 2.0---- 0.0------------
2019-07-14 16.3 20.6 12.9 12.9-- 7.7 0.7---- 18.6------------
2019-07-13 17.5 23.4 13.9 11.4-- 4.7 1.0---- 12.0------------
2019-07-12 17.5 25.2 7.0 5.5-- 4.0 0.7---- 0.0------------
2019-07-11 15.1 19.6 11.5 10.4-- 7.0 1.7---- 1.6------------
2019-07-10 14.8 19.3 11.5 8.9-- 6.3 3.0---- 3.4------------
2019-07-09 16.6 21.6 11.5 8.0-- 6.0 4.7---- 2.1------------
2019-07-08 15.6 20.6 11.0 9.4-- 5.7 4.3---- 0.0------------
2019-07-07 20.2 24.9 17.3 14.4-- 4.3 4.0---- 0.0------------
2019-07-06 21.6 27.5 15.8 14.8-- 4.3 2.7---- 0.0------------
2019-07-05 17.9 24.3 8.0 6.0-- 5.3 3.3---- 0.0------------
2019-07-04 17.2 23.6 9.5 7.4-- 6.0 2.7---- 0.0------------
2019-07-03 17.8 23.1 11.5 9.4-- 5.3 3.0---- 0.0------------
2019-07-02 23.9 30.0 20.0 20.2-- 3.3 3.7---- 0.0------------
2019-07-01 28.2 35.2 22.0 18.8-- 4.3 4.0---- 0.0------------
2019-06-30 25.7 32.7 18.2 15.3-- 3.3 3.3---- 0.0------------
2019-06-29 19.3 26.0 11.0 8.4-- 4.7 3.3---- 0.0------------
2019-06-28 18.1 23.6 12.4 9.9-- 2.7 3.7---- 0.0------------
2019-06-27 25.3 30.4 22.3 21.5-- 3.7 5.7---- 0.0------------
2019-06-26 26.4 33.2 17.3 15.8-- 4.7 1.3---- 0.0------------
2019-06-25 24.0 30.2 15.0 13.4-- 4.3 2.0---- 0.0------------
2019-06-24 21.0 24.7 15.3 13.9-- 3.0 3.3---- 0.0------------
2019-06-23 21.1 26.2 16.3 14.8-- 3.0 3.7---- 0.0------------
2019-06-22 20.9 25.7 16.0 14.8-- 5.0 2.3---- 0.2------------
2019-06-21 21.5 26.7 17.7 16.3-- 5.3 1.3---- 20.3------------
2019-06-20 23.0 28.7 18.2 15.8-- 4.3 2.3---- 0.0------------
2019-06-19 22.1 27.9 17.3 16.3-- 4.0 0.7---- 0.2------------
2019-06-18 19.6 24.7 12.9 11.9-- 4.0 1.3---- 0.0------------
2019-06-17 19.5 22.1 17.7 17.3-- 4.3 1.7---- 0.0------------
2019-06-16 24.0 30.0 21.3 19.3-- 3.0 2.7---- 0.0------------
2019-06-15 26.5 33.2 17.7 15.8-- 3.0 2.3---- 0.0------------
2019-06-14 25.2 29.7 20.7 18.8-- 3.3 1.3---- 0.0------------
2019-06-13 25.5 31.7 18.7 16.3-- 3.0 2.7---- 0.0------------
2019-06-12 25.4 31.2 18.7 16.3-- 3.0 3.7---- 0.0------------
2019-06-11 24.9 31.2 17.7 15.8-- 3.3 2.7---- 0.0------------
2019-06-10 23.4 30.2 14.4 13.1-- 4.0 2.7---- 0.0------------
2019-06-09 20.3 25.2 16.3 15.8-- 4.0 1.0---- 0.0------------
2019-06-08 22.8 29.2 15.4 13.4-- 4.3 1.3---- 0.1------------
2019-06-07 21.4 27.2 16.3 14.8-- 3.7 2.7---- 0.0------------
2019-06-06 20.0 26.2 13.9 12.4-- 3.0 1.3---- 0.0------------
2019-06-05 19.5 25.2 13.4 12.4-- 3.3 2.7---- 0.0------------
2019-06-04 20.9 26.2 12.6 10.9-- 3.0 3.0---- 0.0------------
2019-06-03 20.2 27.0 12.1 11.4-- 3.7 1.3---- 0.2------------
2019-06-02 19.2 25.7 11.9 10.4-- 4.7 2.0---- 0.0------------
2019-06-01 17.1 23.1 9.0 7.9-- 6.0 0.7---- 0.0------------
2019-05-31 15.1 20.6 9.5 9.9-- 6.0 2.0---- 0.0------------
2019-05-30 11.2 13.0 10.0 10.4-- 7.0 2.7---- 9.3------------
2019-05-29 14.7 20.3 11.5 10.9-- 6.3 3.7---- 0.3------------
2019-05-28 19.7 22.9 16.3 14.8-- 5.0 4.7---- 0.4------------
2019-05-27 20.2 25.3 15.3 13.9-- 6.3 2.3---- 1.6------------
159.9 ms

 

Źródłem pochodzenia danych jest Instytut Meteorologii i Gospodarki Wodnej – Państwowy Instytut Badawczy. Dane Instytutu Meteorologii i Gospodarki Wodnej – Państwowego Instytutu Badawczego zostały przetworzone.

Dane źródłowe można odnaleźć na stronie https://dane.imgw.pl